OINN  Noshahr Airport

Add Bookmark

Iran

Status IATA
Operational NSH
Latitude Longitude
36° 39' 47" N 51° 27' 52" E
36.663300 51.464699
Local (DST + 5) UTC (GMT + 4)
Sep 2, 2014 06:30 Sep 2, 2014 14:00
Sunrise-Sunset Local UTC
Begin Civil Twilight 06:08 01:38
Sunrise 06:34 02:04
Sunset 07:32 15:02
End Civil Twilight 07:59 15:29

Current Weather

METAR Observed MVFR
OINN 021300Z 05004KT 9999 FEW020CB BKN026 28/24 Q1009 Tue, Sep 2, 2014 @ 13:00 UTC
(1 Hour ago)
Marginal Visual Flight Rules
Wind Visibility Clouds Conditions
050° at 4 knots (7 kph) 10 km or more
  • Few at 2,000' AGL
  • Broken at 2,600' AGL
  • No significant weather
Temperatures Readings Precipitation
Current Temp 28°C (82°F)
Dewpoint 24°C (75°F)
Heat Index 32°C (89°F)
Humidity 79%
Altimeter 29.79"Hg
Sea Level Pressure 1009mb
None Recorded

Additional weather within a 92.6km radius of OINN

Map ICAO Location
OINR 75km W (292°)

24 Hour Weather History

Loading
-

24 Hour Weather Graphs

Loading
-

CheckWX.com is intended as a tool to help pilots better visualize weather data. It is not intended as a substitute for an official weather briefing obtained from a Flight Service Station. CheckWX.com does not meet the FAA requirements for an official pre-flight weather briefing. Therefore, it's important that pilots still call and obtain an official FSS pre-flight weather briefing.